Jean Paul

Chief Scout - Stade Rennais
3 Dec 2028
Sunday
Process

Personality

Adaptability (4) Ambition (11) Controversy (17) Loyalty (5) Pressure (17) Professionalism (15) Sportsmanship (6) Temperament (3)

Profile

Coaching Style Democratic
License Continental A
Determination 15
Man Management 10
Motivating 14
Discipline 11
Job Satisfaction
100%
Fatigue
0%
Role Chief Scout
Wage 100.7K p/w
Contract 14.03.2029

Performance

Behaviour Good
Training Effectiveness
45%
Player Development
25%
Injury Prevention
50%
Tactical Implementation
40%

Recent Events

Assessed a player now
Attended a recruitment meeting now
Attended a recruitment meeting now
Recommended a transfer target now
Recommended a transfer target now
Assessed a player now
Assessed a player now
Assessed a player now

Currently Monitoring

242
Player Club Status Ability Confidence Watched Last Observed Latest Vote
Wessam Abou Ali Columbus Crew Active 135 / 131 40% 11 02.12.2028 -
Leonardo Campana New England Revolution Active 127 / 129 40% 6 02.12.2028 -
Mateo Bajamich Atlético Tucumán Active 124 / 122 40% 2 02.12.2028 -
Gonzalo Plata Nacional Active 139 / 140 40% 7 01.12.2028 -
Alejo Veliz Bahia Active 141 / 137 40% 4 01.12.2028 -
Vitinho Internacional Active 127 / 128 40% 2 30.11.2028 -
Kiani Inge Groningen Active 117 / 124 40% 2 29.11.2028 -
Azizbek To'lqinbekov Bunyodkor Active 103 / 107 40% 2 29.11.2028 -
Rhian Brewster LA Galaxy Active 126 / 129 40% 6 29.11.2028 -
Nicolás Ferreira Wanderers Active 126 / 120 40% 6 29.11.2028 -
Ramiro Ruiz Rodríguez Atlético Tucumán Active 131 / 122 40% 2 29.11.2028 -
Ramiro Villella Inter Active 98 / 107 40% 1 29.11.2028 -
Toni Fruk Talleres Active 140 / 137 40% 10 27.11.2028 -
Bongokuhle Hlongwane LA Galaxy Active 136 / 133 40% 2 27.11.2028 -
Souleymane Faye Sporting CP Active 139 / 136 40% 1 27.11.2028 -
Ignacio Maestro Puch Independiente Active 123 / 128 40% 10 26.11.2028 -
Agustín Anello Philadelphia Union Active 131 / 128 40% 9 25.11.2028 -
Erik Botheim Viking Active 127 / 128 40% 4 25.11.2028 -
Christos Mouzakitis Hull City Active 144 / 148 40% 8 24.11.2028 -
Louis Page Leicester City Active 133 / 142 40% 2 24.11.2028 -
Kévin Denkey FC Cincinnati Active 132 / 130 40% 6 24.11.2028 -
John Kennedy Corinthians Active 140 / 132 40% 2 24.11.2028 -
Gonzalo Tapia São Paulo Active 137 / 130 40% 1 24.11.2028 -
Jack Shorrock Port Vale Active 104 / 112 40% 1 24.11.2028 -
Barış Alper Yılmaz Cruzeiro Active 150 / 150 40% 5 21.11.2028 -
Lyle Foster Rosenborg Active 138 / 135 40% 8 21.11.2028 -
Alexander Díaz Deportivo Riestra Active 125 / 122 40% 2 20.11.2028 -
Emmanuel Latte Lath Atlanta United FC Active 144 / 136 40% 5 18.11.2028 -
Endrick Boca Juniors Active 163 / 162 40% 6 17.11.2028 -
Alan Velasco Fortaleza Active 134 / 133 40% 3 17.11.2028 -
Lenny Piètre Dijon Active 101 / 104 42% 1 / 1m 15.11.2028 -
Alexis Cuello San Lorenzo Active 132 / 125 40% 7 14.11.2028 -
Miguel Figueiredo Benfica Active 125 / 133 40% 5 12.11.2028 -
Dejan Joveljić Seattle Sounders Active 126 / 129 40% 8 12.11.2028 -
José Neto Benfica Active 128 / 131 40% 1 12.11.2028 -
Maurice Malone DC United Active 121 / 125 40% 3 09.11.2028 -
Daniel Barrea Godoy Cruz Active 131 / 122 40% 5 09.11.2028 -
Jonás Luna Wanderers Active 127 / 122 40% 1 09.11.2028 -
Talles Magno New York City Active 141 / 134 40% 10 05.11.2028 -
Bénie Traoré New York City Active 129 / 129 40% 2 04.11.2028 -
Rodrigo Auzmendi Banfield Active 130 / 124 40% 2 03.11.2028 -
Louis Munteanu Charlotte Football Club Active 132 / 132 40% 2 29.10.2028 -
Jeong Sang-Bin St. Louis CITY SC Active 127 / 119 40% 2 28.10.2028 -
Emiliano Gómez Boston River Active 122 / 121 40% 3 28.10.2028 -
Ignacio Russo Tigre Active 122 / 126 40% 1 28.10.2028 -
Luca Langoni Columbus Crew Active 134 / 132 40% 6 24.10.2028 -
Jefry Zapata Aldosivi Active 120 / 120 40% 4 23.10.2028 -
Fabri Vitória Active 123 / 120 40% 1 22.10.2028 -
Germán Berterame Inter Miami CF Active 130 / 135 40% 5 12.10.2028 -
Andrey Ivlev Nizhniy Novgorod Active 112 / 122 40% 2 07.10.2028 -
Jofre Torrents Ajax Active 137 / 141 40% 1 07.10.2028 -
Diego León Rotherham United Active 124 / 130 40% 1 07.10.2028 -
Konstantin Tyukavin New York City Active 147 / 143 40% 1 06.10.2028 -
Matías Arezo Penarol Active 135 / 127 40% 2 03.10.2028 -
Mateusz Bogusz DC United Active 134 / 131 40% 2 03.10.2028 -
Eric Klein Real Salt Lake Active 96 / 105 40% 1 02.10.2028 -
Salvador Blopá Wolverhampton Active 126 / 131 40% 1 02.10.2028 -
Martín Ojeda Orlando City Active 134 / 135 40% 2 29.09.2028 -
Théodore Lefèvre Tours Active 152 / 152 52% 1 / 1m 20.09.2028 -
Otis Caporusso Tours Active 110 / 118 42% 1 / 1m 20.09.2028 -
Kerwin Vargas DC United Active 124 / 125 40% 1 15.09.2028 -
Riquelme Thompson-Jones Accrington Stanley Active 110 / 122 40% 2 01.09.2028 -
Alejandro Almaraz NK Celje Active 124 / 125 40% 2 01.09.2028 -
Lucas Silva River Plate Active 102 / 113 40% 1 01.09.2028 -
Felipe Obradovich Ferro Carril Oeste Active 106 / 115 40% 1 30.08.2028 -
Ayden Heaven Portsmouth Active 148 / 155 40% 4 21.08.2028 -
Adama Soumaoro Paris FC Report Ready 118 / 119 83% 1 07.08.2028 -
Federico Matarán Giana Erminio Active 104 / 115 40% 3 31.07.2028 -
Jan Bürger Northampton Town Active 121 / 125 40% 3 31.07.2028 -
Lamine Bèye Portimonense Active 117 / 122 40% 1 25.07.2028 -
Alex Scott Bournemouth Active 159 / 160 40% 9 18.07.2028 -
Luca Koleosho Paris FC Active 147 / 142 40% 10 18.07.2028 -
Ernest Nuamah Olympique Lyonnais Active 146 / 148 40% 12 18.07.2028 -
Luka Vušković Tottenham Active 151 / 155 40% 4 11.07.2028 -
Noah Markmann Esbjerg Active 118 / 127 40% 2 11.07.2028 -
Harry Amass Manchester United Active 144 / 148 40% 2 11.07.2028 -
Martim Cunha Porto Active 108 / 116 40% 5 04.07.2028 -
Vasilije Novičić IMT Active 111 / 112 40% 1 04.07.2028 -
Ahmad Ngouyamsa US Creteil Report Ready 116 / 120 83% 1 03.07.2028 -
Chemsdine Talbi Sunderland Active 152 / 152 40% 12 26.06.2028 -
Luca Williams-Barnett Walsall Active 124 / 130 40% 2 26.06.2028 -
Benicio Baker-Boaitey Mansfield Town Lost 116 / 117 40% 1 26.06.2028 -
Leo Castledine Middlesbrough Active 137 / 139 40% 6 20.06.2028 -
Ra'ees Bangura-Williams Millwall Active 131 / 127 40% 2 20.06.2028 -
Antoni Milambo Brentford Active 147 / 147 40% 7 20.06.2028 -
Morteza Torabi Malavan Active 107 / 108 40% 5 07.06.2028 -
Andrija Bulatović Chamois Niortais Active 127 / 131 40% 6 05.06.2028 -
Myles Lewis-Skelly Arsenal Active 151 / 159 40% 1 01.06.2028 -
Jorthy Mokio ADO Den Haag Active 135 / 138 40% 1 31.05.2028 -
Andre Brooks Sheffield United Active 138 / 135 40% 2 30.05.2028 -
Rodrigo Gomes Wolverhampton Active 144 / 147 40% 1 30.05.2028 -
Max Johnston Derby County Active 135 / 134 40% 1 27.05.2028 -
Malick Fofana Sunderland Active 151 / 152 40% 19 24.05.2028 -
Shea Charles Southampton Active 148 / 147 40% 7 24.05.2028 -
Jason Witsel PSV Active 127 / 128 40% 1 24.05.2028 -
Adam Wharton Crystal Palace Active 161 / 161 40% 6 22.05.2028 -
Jayden Addai Bari Active 136 / 141 40% 13 22.05.2028 -
Caylan Vickers Burton Albion Active 113 / 118 40% 2 21.05.2028 -
Omari Hutchinson Nottingham Forest Active 156 / 152 40% 5 19.05.2028 -
Reyes Cleary Bromley Active 122 / 121 40% 2 18.05.2028 -
Ante Crnac Bristol Rovers Active 127 / 128 40% 2 17.05.2028 -
Jacques Ekomié Wrexham Active 133 / 137 40% 1 17.05.2028 -
Mohamed-Ali Cho Hull City Active 142 / 143 40% 6 15.05.2028 -
Savinho Tottenham Active 163 / 162 40% 15 14.05.2028 -
Kévin Danois AJ Auxerre Active 142 / 148 40% 8 08.05.2028 -
Stanis Idumbo AC Ajaccio Active 141 / 138 40% 10 03.05.2028 -
Ronan Kpakio AC Milan Active 122 / 130 40% 2 03.05.2028 -
Calvin Ramsay Bristol Rovers Active 126 / 124 40% 1 30.04.2028 -
Harrison Murray-Campbell Chelsea Active 111 / 114 40% 1 28.04.2028 -
Andrey Santos Bolton Wanderers Active 148 / 149 40% 3 25.04.2028 -
Tyreece Campbell Charlton Athletic Active 124 / 123 40% 4 24.04.2028 -
Abdul Fatawu Leicester City Active 144 / 143 40% 1 21.04.2028 -
Ngal'Ayel Mukau LOSC Lille Active 144 / 148 40% 2 15.04.2028 -
Jhon Solís Birmingham Active 141 / 140 40% 2 15.04.2028 -
Ben Gannon Doak Charlton Athletic Active 149 / 152 40% 2 14.04.2028 -
Xavi Simons Tottenham Active 166 / 162 40% 6 12.04.2028 -
Dehmaine Tabibou FC Nantes Active 135 / 131 40% 3 11.04.2028 -
Alex Robertson Cardiff City Active 126 / 126 40% 1 07.04.2028 -
Hákon Arnar Haraldsson LOSC Lille Active 158 / 154 40% 8 31.03.2028 -
Adam Karabec Sparta Prague Active 134 / 135 40% 5 27.03.2028 -
Thiago Silvero Vélez Active 126 / 133 40% 1 24.03.2028 -
Alisson Shakhtar Active 140 / 145 40% 5 20.03.2028 -
Jack McGlynn Stoke City Active 138 / 137 40% 3 18.03.2028 -
Jayden Danns Bradford City Active 134 / 138 40% 2 18.03.2028 -
Gustavo Neves Bragantino Active 131 / 132 40% 3 06.03.2028 -
Quinn Sullivan Philadelphia Union Active 132 / 125 40% 3 26.02.2028 -
Lucas Assadi AIK Active 136 / 132 40% 3 21.02.2028 -
Victor Lind Hammarby Active 133 / 129 40% 4 20.02.2028 -
Nhoa Sangui AS Nancy Active 128 / 131 40% 1 16.02.2028 -
Patricio Moyano Defensores Active 120 / 121 40% 1 25.01.2028 -
Archie Gray Southampton Active 156 / 155 40% 5 17.01.2028 -
Bitello Universidad de Chile Active 135 / 135 68% 1 01.01.2028 Approve
Dilan Godoy Beitar Jerusalem Active 122 / 118 40% 3 30.12.2027 -
Valentino Acuña Newell's Old Boys Active 116 / 119 40% 3 30.12.2027 -
Ryan Kavuma-McQueen Accrington Stanley Active 118 / 128 40% 6 27.12.2027 -
Mateo Peralta Danubio Active 109 / 116 40% 2 26.12.2027 -
Eli Junior Kroupi Bournemouth Active 143 / 149 40% 3 26.12.2027 -
Victor Hernandez Santa Fe Active 114 / 125 40% 5 21.12.2027 -
Josh Acheampong Everton Active 142 / 146 40% 4 21.12.2027 -
Siyabonga Mabena Bidvest Wits Active 120 / 127 40% 4 17.12.2027 -
Kerim Alajbegović Modena Active 129 / 136 40% 3 15.12.2027 -
Mateo Silvetti Seattle Sounders Active 118 / 132 40% 1 14.12.2027 -
Jeremías Merlo Gimnasia La Plata Active 131 / 122 40% 2 12.12.2027 -
Bazoumana Touré Newcastle United Active 145 / 151 40% 3 11.12.2027 -
Eliás Montiel Borussia Dortmund Active 136 / 141 40% 2 16.08.2027 -
Lucas Bergvall Tottenham Active 148 / 154 40% 2 16.08.2027 -
Caleb Yirenkyi Coventry City Active 138 / 143 40% 3 26.07.2027 -
Enzo Koffi Olympique de Marseille Active 118 / 119 40% 1 14.07.2027 -
Silas Huber Zurich Active 118 / 126 40% 1 05.07.2027 -
Xavier Dziekoński Slask Active 118 / 124 40% 1 05.07.2027 -
Amine Boukamir Charleroi Active 105 / 109 40% 1 28.06.2027 -
Bart Verbruggen Liverpool Active 157 / 158 40% 1 21.06.2027 -
Ander Astralaga Newcastle United Active 128 / 131 40% 1 21.06.2027 -
Jacques Gautier Chamois Niortais Active 123 / 128 79% 1 14.06.2027 Approve
Oliver Dovin Coventry City Active 127 / 132 40% 1 01.06.2027 -
Georginio Rutter Brighton Active 149 / 150 40% 4 31.05.2027 -
Ethan Williams Peterborough United Active 116 / 117 40% 2 30.05.2027 -
William Gomes Porto Active 143 / 148 40% 3 29.05.2027 -
Lucas Høgsberg RC Strasbourg Active 133 / 138 40% 6 29.05.2027 -
Mateus Mané Burnley Active 137 / 140 40% 3 27.05.2027 -
Sam Amo-Ameyaw RC Strasbourg Active 126 / 128 40% 3 26.05.2027 -
Oscar Schwartau Norwich City Active 121 / 124 40% 3 26.05.2027 -
Robin Roefs Sunderland Active 146 / 147 40% 1 26.05.2027 -
Othmane Maamma Watford Active 128 / 127 40% 8 23.05.2027 -
Romelle Donovan Brentford Active 119 / 129 40% 6 23.05.2027 -
Senny Mayulu Paris Saint-Germain Active 141 / 150 40% 2 23.05.2027 -
Louis Leroux FC Nantes Active 129 / 132 40% 5 22.05.2027 -
Kirill Glebov CSKA Moscow Active 130 / 128 40% 4 21.05.2027 -
Mohamadou Kanté Crawley Town Active 115 / 121 40% 2 21.05.2027 -
Cheveyo Tsawa Club Brugge Active 118 / 127 40% 4 19.05.2027 -
Jan Virgili Club Brugge Active 135 / 137 40% 10 16.05.2027 -
Pape Diong Westerlo Active 116 / 124 40% 4 16.05.2027 -
Sindre Walle Egeli Udinese Active 127 / 135 40% 5 15.05.2027 -
Gessime Yassine RC Strasbourg Active 126 / 122 40% 2 15.05.2027 -
James Trafford Leeds United Active 148 / 146 40% 1 15.05.2027 -
Marvin Keller Chelsea Active 140 / 144 40% 1 15.05.2027 -
Samuel Soares Benfica Active 134 / 135 40% 2 14.05.2027 -
Melker Ellborg Sunderland Active 125 / 127 40% 2 12.05.2027 -
Radek Vítek Middlesbrough Active 142 / 140 40% 2 12.05.2027 -
Tibe De Vlieger KAA Gent Active 102 / 110 40% 4 07.05.2027 -
Doğan Alemdar Basaksehir Active 122 / 120 40% 2 07.05.2027 -
Sławomir Abramowicz Jagiellonia Active 119 / 125 40% 1 06.05.2027 -
Deniz Ertaş Konyaspor Active 123 / 123 40% 1 06.05.2027 -
Gianluca Prestianni Benfica Active 133 / 137 40% 1 04.05.2027 -
Calum Agius Crewe Alexandra Active 95 / 100 40% 1 04.05.2027 -
Samir El Mourabet RC Strasbourg Active 121 / 131 40% 7 30.04.2027 -
Yassine Khalifi Charleroi Active 105 / 108 40% 2 25.04.2027 -
Monty Batlhabane Polokwane City Active 95 / 95 40% 4 24.04.2027 -
Lander Astiazarán Real Sociedad Active 101 / 109 40% 1 24.04.2027 -
Guillaume Restes Toulouse FC Active 140 / 137 40% 1 22.04.2027 -
Mathys Tel Tottenham Active 142 / 149 40% 2 18.04.2027 -
Olívio Tomé Benfica Active 109 / 110 40% 3 18.04.2027 -
Rocco Vata Watford Active 117 / 123 40% 2 20.03.2027 -
Joaquin Seys Club Brugge Active 132 / 133 40% 1 17.03.2027 -
Nico O'Reilly Manchester City Active 156 / 157 40% 1 09.03.2027 -
Roberto Fernández Braga Active 140 / 141 40% 10 21.01.2027 -
Pau Víctor Braga Active 141 / 136 40% 5 21.01.2027 -
Alexsandro Ribeiro LOSC Lille Active 145 / 143 40% 1 12.01.2027 -
Erik Lira Cruz Azul Active 134 / 134 40% 1 12.01.2027 -
Manu Koné AS Roma Active 161 / 163 40% 2 07.01.2027 -
Anel Ahmedhodžić Burnley Active 138 / 134 40% 1 07.01.2027 -
Ousmane Diomande Nottingham Forest Active 148 / 154 40% 1 07.01.2027 -
Brais Méndez RC Lens Active 146 / 152 40% 4 30.12.2026 -
Sofiane Diop OGC Nice Active 140 / 140 40% 3 30.12.2026 -
Takumi Minamino Monaco Active 147 / 137 40% 3 30.12.2026 -
Vitinha Paris Saint-Germain Active 180 / 183 40% 4 28.12.2026 -
Achraf Hakimi Paris Saint-Germain Active 186 / 175 40% 12 26.12.2026 -
Rafiu Durosinmi Racing Genk Active 135 / 128 40% 6 24.12.2026 -
Ousmane Dembélé Paris Saint-Germain Active 191 / 183 40% 6 24.12.2026 -
Chukwubuikem Ikwuemesi OH Leuven Active 121 / 118 40% 3 24.12.2026 -
Osame Sahraoui LOSC Lille Active 140 / 137 40% 6 21.12.2026 Monitor
João Pedro Chelsea Active 151 / 149 40% 7 15.12.2026 -
James Maddison Tottenham Active 156 / 155 40% 6 07.12.2026 -
Moisés Caicedo Chelsea Active 174 / 169 40% 6 04.12.2026 -
João Neves Paris Saint-Germain Active 170 / 163 40% 7 26.11.2026 -
Amadou Onana Aston Villa Active 155 / 155 40% 1 26.11.2026 -
Kevin Fulham Active 150 / 145 40% 4 24.11.2026 -
Carlos Álvarez Club America Active 143 / 144 40% 4 23.11.2026 -
Cody Gakpo Liverpool Active 158 / 155 40% 5 21.11.2026 -
Tyrese Campbell Sheffield United Active 130 / 123 40% 3 19.11.2026 -
Tiago Santos LOSC Lille Active 139 / 140 40% 1 11.11.2026 -
Adama Traoré Gazelle Garoua Active 91 / 94 40% 1 09.11.2026 -
Nicolò Tresoldi Club Brugge Active 130 / 132 40% 3 03.11.2026 -
Jens Petter Hauge Bodo/Glimt Active 148 / 134 40% 2 03.11.2026 -
Pavel Šulc Olympique Lyonnais Active 141 / 140 40% 1 30.10.2026 -
Federico Chiesa Liverpool Active 154 / 153 40% 1 27.10.2026 -
Óscar Mingueza Crystal Palace Active 146 / 147 40% 1 25.10.2026 -
Pedro Porro Tottenham Active 148 / 147 40% 1 25.10.2026 -
Sven Botman Newcastle United Active 159 / 159 40% 2 24.10.2026 -
Nathan Collins Brentford Active 142 / 147 40% 1 24.10.2026 -
Alejandro Piedrahita Deportivo Pereira Active 126 / 123 40% 1 22.10.2026 -
Mats Wieffer Brighton Active 147 / 144 40% 3 19.10.2026 -
Jadon Sancho Manchester United Active 145 / 151 40% 1 19.10.2026 -
Cristian Uribe Monaco Active 148 / 151 40% 2 04.10.2026 -
Tadeo Allende Inter Miami CF Active 120 / 124 40% 2 29.09.2026 -
Denis Zakaria Monaco Active 144 / 143 40% 1 28.09.2026 -
Maghnes Akliouche Paris Saint-Germain Active 138 / 143 40% 1 19.09.2026 -
Yankuba Minteh Brighton Active 145 / 153 40% 1 11.09.2026 -
Xaver Schlager Nottingham Forest Active 149 / 149 40% 1 11.09.2026 -
Ismaïla Sarr Crystal Palace Active 146 / 153 40% 1 09.09.2026 -
Jarrod Bowen West Ham United Active 155 / 156 40% 1 31.08.2026 -
Morgan Rogers Chelsea Active 154 / 159 40% 1 01.08.2026 -